Time;durP1;ratioP1;P1;durP2;ratioP2;P2;SDS_P1;SDS_P2;PMS_P1;PMS_P2;Temp;Humidity;BMP_temperature;BMP_pressure;BME280_temperature;BME280_humidity;BME280_pressure;Samples;Min_cycle;Max_cycle;Signal;HPM_P1;HPM_P2
2023/10/09 00:01:46;;;;;;;;;14.67;14.00;;;;;17.60;100.00;102150.41;5033643;28;45477;-78
2023/10/09 00:04:12;;;;;;;;;16.67;13.00;;;;;17.60;100.00;102150.41;5044348;28;45698;-78
2023/10/09 00:06:38;;;;;;;;;13.00;13.00;;;;;17.57;100.00;102144.16;5029174;28;46708;-79
2023/10/09 00:11:56;;;;;;;;;19.00;13.67;;;;;17.55;100.00;102145.03;5037410;28;45460;-77
2023/10/09 00:14:24;;;;;;;;;18.67;14.67;;;;;17.60;100.00;102149.50;5030997;28;45558;-78
2023/10/09 00:16:55;;;;;;;;;17.33;13.33;;;;;17.56;100.00;102140.59;5026975;28;46507;-75
2023/10/09 00:19:30;;;;;;;;;17.67;17.67;;;;;17.54;100.00;102140.59;5028266;28;45497;-75
2023/10/09 00:21:55;;;;;;;;;20.00;14.67;;;;;17.51;100.00;102140.56;5033286;28;45581;-75
2023/10/09 00:24:24;;;;;;;;;17.67;16.67;;;;;17.53;100.00;102148.59;5031968;28;45427;-75
2023/10/09 00:27:00;;;;;;;;;19.00;15.00;;;;;17.46;100.00;102145.00;5037395;28;46183;-77
2023/10/09 00:29:33;;;;;;;;;23.33;15.33;;;;;17.44;100.00;102140.56;5034545;28;45546;-77
2023/10/09 00:32:13;;;;;;;;;15.00;13.33;;;;;17.46;100.00;102147.66;5036249;28;45468;-76
2023/10/09 00:34:42;;;;;;;;;15.33;15.33;;;;;17.47;100.00;102135.19;5036822;28;46300;-76
2023/10/09 00:37:16;;;;;;;;;13.00;11.67;;;;;17.45;100.00;102134.31;5033492;28;46993;-75
2023/10/09 00:39:43;;;;;;;;;20.00;16.00;;;;;17.40;100.00;102136.97;5036019;28;45475;-75
2023/10/09 00:42:12;;;;;;;;;14.67;14.00;;;;;17.39;100.00;102131.63;5028014;28;45607;-76
2023/10/09 00:44:48;;;;;;;;;14.33;12.00;;;;;17.38;100.00;102132.53;5031458;28;45534;-75
2023/10/09 00:47:21;;;;;;;;;19.00;13.67;;;;;17.36;100.00;102121.81;5034107;28;46865;-76
2023/10/09 00:49:57;;;;;;;;;14.67;11.33;;;;;17.33;100.00;102118.25;5033212;28;45833;-75
2023/10/09 00:52:31;;;;;;;;;15.33;13.33;;;;;17.31;100.00;102120.94;5030100;28;45511;-75
2023/10/09 00:55:01;;;;;;;;;19.33;11.33;;;;;17.31;100.00;102125.34;5035043;28;46415;-76
2023/10/09 00:57:29;;;;;;;;;15.00;13.67;;;;;17.28;100.00;102124.47;5033934;28;47726;-79
2023/10/09 00:59:59;;;;;;;;;13.33;12.00;;;;;17.29;100.00;102114.69;5033228;28;45808;-77
2023/10/09 01:02:35;;;;;;;;;16.67;14.00;;;;;17.26;100.00;102106.69;5052678;28;45542;-77
2023/10/09 01:05:11;;;;;;;;;18.00;12.33;;;;;17.26;100.00;102106.69;5036604;28;45690;-77
2023/10/09 01:07:39;;;;;;;;;13.00;12.00;;;;;17.27;100.00;102104.00;5044714;28;46272;-77
2023/10/09 01:10:09;;;;;;;;;14.67;13.67;;;;;17.24;100.00;102103.09;5032124;28;45473;-77
2023/10/09 01:12:42;;;;;;;;;19.67;13.00;;;;;17.21;100.00;102104.00;5021919;28;45536;-78
2023/10/09 01:15:07;;;;;;;;;14.00;12.33;;;;;17.18;100.00;102093.28;5030768;28;45491;-78
2023/10/09 01:17:36;;;;;;;;;17.33;12.33;;;;;17.18;100.00;102092.41;5039000;28;45823;-77
2023/10/09 01:20:04;;;;;;;;;16.00;14.00;;;;;17.20;100.00;102091.50;5034477;28;45452;-76
2023/10/09 01:22:30;;;;;;;;;22.00;14.67;;;;;17.17;100.00;102078.16;5025515;28;45548;-78
2023/10/09 01:24:55;;;;;;;;;16.67;15.00;;;;;17.16;100.00;102081.72;5038246;28;45561;-75
2023/10/09 01:27:24;;;;;;;;;15.67;15.00;;;;;17.16;100.00;102076.38;5038676;28;45956;-75
2023/10/09 01:29:51;;;;;;;;;14.67;12.00;;;;;17.15;100.00;102081.69;5033473;28;45473;-75
2023/10/09 01:32:18;;;;;;;;;15.67;13.00;;;;;17.14;100.00;102085.25;5041848;28;45587;-76
2023/10/09 01:34:50;;;;;;;;;16.33;14.00;;;;;17.09;100.00;102087.91;5032702;28;45764;-77
2023/10/09 01:37:18;;;;;;;;;21.67;13.67;;;;;17.06;100.00;102084.34;5033079;28;46038;-77
2023/10/09 01:39:54;;;;;;;;;17.67;13.33;;;;;17.07;100.00;102078.13;5037878;28;45482;-76
2023/10/09 01:44:55;;;;;;;;;5.00;1.00;;;;;17.07;100.00;102072.78;5030982;28;46812;-75
2023/10/09 01:47:21;;;;;;;;;20.33;15.00;;;;;17.05;100.00;102072.78;5038923;28;45698;-74
2023/10/09 01:49:52;;;;;;;;;18.33;14.33;;;;;17.04;100.00;102076.31;5030631;28;45524;-75
2023/10/09 01:52:18;;;;;;;;;14.33;12.00;;;;;17.03;100.00;102067.41;5032864;28;45509;-74
2023/10/09 01:54:50;;;;;;;;;17.33;13.33;;;;;17.03;100.00;102063.88;5032094;28;45513;-75
2023/10/09 01:57:22;;;;;;;;;23.00;16.00;;;;;17.00;100.00;102064.75;5026291;28;46773;-75
2023/10/09 01:59:49;;;;;;;;;13.33;12.00;;;;;16.99;100.00;102059.38;5033188;28;45503;-75
2023/10/09 02:02:33;;;;;;;;;14.67;13.00;;;;;16.98;100.00;102055.84;5048989;28;45475;-75
2023/10/09 02:05:25;;;;;;;;;14.00;11.00;;;;;16.95;100.00;102058.50;5032249;28;45568;-76
2023/10/09 02:07:53;;;;;;;;;16.67;14.00;;;;;16.91;100.00;102058.47;5031641;28;49004;-75
2023/10/09 02:10:31;;;;;;;;;9.00;9.00;;;;;16.89;100.00;102058.47;5034598;28;45460;-75
2023/10/09 02:13:11;;;;;;;;;14.00;14.00;;;;;16.88;100.00;102055.78;5035403;28;45710;-77
2023/10/09 02:18:18;;;;;;;;;13.67;11.67;;;;;16.84;100.00;102051.34;5027821;28;45507;-77
2023/10/09 02:26:17;;;;;;;;;13.00;11.67;;;;;16.82;100.00;102053.09;5033991;28;45463;-77
2023/10/09 02:28:43;;;;;;;;;13.00;11.00;;;;;16.81;100.00;102051.31;5034029;28;47428;-77
2023/10/09 02:31:12;;;;;;;;;13.67;13.67;;;;;16.75;100.00;102045.06;5046576;28;45532;-76
2023/10/09 02:33:39;;;;;;;;;13.33;11.00;;;;;16.73;100.00;102052.19;5036822;28;45503;-76
2023/10/09 02:36:08;;;;;;;;;12.67;12.00;;;;;16.72;100.00;102044.16;5028884;28;45492;-78
2023/10/09 02:38:35;;;;;;;;;13.67;11.33;;;;;16.69;100.00;102050.34;5019885;28;47867;-76
2023/10/09 02:43:40;;;;;;;;;15.00;9.67;;;;;16.68;100.00;102061.00;5034568;28;45410;-75
2023/10/09 02:46:13;;;;;;;;;14.67;10.67;;;;;16.65;100.00;102063.66;5036496;28;45487;-75
2023/10/09 02:48:42;;;;;;;;;21.33;15.00;;;;;16.63;100.00;102068.09;5036063;28;47407;-74
2023/10/09 02:51:14;;;;;;;;;17.33;16.00;;;;;16.64;100.00;102065.44;5028296;28;45383;-74
2023/10/09 02:53:40;;;;;;;;;15.00;13.00;;;;;16.67;100.00;102068.13;5037338;28;45421;-74
2023/10/09 02:56:12;;;;;;;;;18.33;17.33;;;;;16.68;100.00;102067.22;5034559;28;45400;-75
2023/10/09 02:58:42;;;;;;;;;15.00;15.00;;;;;16.68;100.00;102061.91;5032842;28;46774;-77
2023/10/09 03:01:13;;;;;;;;;18.00;16.33;;;;;16.70;100.00;102061.91;5031729;28;46202;-77
2023/10/09 03:03:46;;;;;;;;;16.33;15.67;;;;;16.70;100.00;102064.56;5034182;28;45518;-78
2023/10/09 03:06:13;;;;;;;;;13.67;11.67;;;;;16.69;100.00;102066.34;5031571;28;45483;-76
2023/10/09 03:08:40;;;;;;;;;15.67;14.33;;;;;16.72;100.00;102063.75;5028512;28;46859;-76
2023/10/09 03:11:13;;;;;;;;;17.33;16.33;;;;;16.73;100.00;102067.28;5023020;28;45454;-79
2023/10/09 03:13:47;;;;;;;;;18.00;13.67;;;;;16.70;100.00;102064.56;5047758;28;45499;-76
2023/10/09 03:16:21;;;;;;;;;18.00;15.00;;;;;16.70;100.00;102067.22;5030112;28;45507;-76
2023/10/09 03:18:55;;;;;;;;;18.67;14.33;;;;;16.68;100.00;102069.91;5031240;28;48343;-77
2023/10/09 03:21:21;;;;;;;;;22.00;17.00;;;;;16.70;100.00;102059.22;5032731;28;45499;-76
2023/10/09 03:23:50;;;;;;;;;17.33;14.33;;;;;16.69;100.00;102057.44;5036918;28;53205;-77
2023/10/09 03:26:19;;;;;;;;;19.00;14.00;;;;;16.69;100.00;102055.69;5040768;28;45641;-75
2023/10/09 03:28:48;;;;;;;;;16.67;13.00;;;;;16.68;100.00;102064.56;5031272;28;46985;-76
2023/10/09 03:31:14;;;;;;;;;16.67;12.00;;;;;16.67;100.00;102065.47;5036800;28;45485;-75
2023/10/09 03:33:40;;;;;;;;;15.33;13.00;;;;;16.66;100.00;102073.44;5032539;28;45362;-76
2023/10/09 03:36:07;;;;;;;;;19.33;14.67;;;;;16.66;100.00;102071.66;5032784;28;45532;-77
2023/10/09 03:38:34;;;;;;;;;16.00;12.00;;;;;16.69;100.00;102076.13;5034440;28;45789;-75
2023/10/09 03:41:06;;;;;;;;;14.00;8.00;;;;;16.69;100.00;102079.69;5031945;28;45482;-75
2023/10/09 03:43:40;;;;;;;;;13.67;10.00;;;;;16.73;100.00;102081.53;5029513;28;45486;-76
2023/10/09 03:46:20;;;;;;;;;13.67;12.67;;;;;16.76;100.00;102076.19;5031146;28;45414;-74
2023/10/09 03:48:47;;;;;;;;;12.00;10.33;;;;;16.82;100.00;102070.00;5032214;28;47580;-75
2023/10/09 03:51:15;;;;;;;;;13.67;12.00;;;;;16.86;100.00;102077.13;5034844;28;45451;-74
2023/10/09 03:53:41;;;;;;;;;12.67;9.67;;;;;16.91;100.00;102074.50;5040636;28;45428;-75
2023/10/09 03:56:12;;;;;;;;;12.00;12.00;;;;;16.91;100.00;102074.50;5030544;28;45579;-74
2023/10/09 03:58:39;;;;;;;;;12.67;9.00;;;;;16.91;100.00;102075.38;5030658;28;46603;-76
2023/10/09 04:01:13;;;;;;;;;16.33;12.00;;;;;16.92;100.00;102076.28;5031783;28;45625;-74
2023/10/09 04:03:38;;;;;;;;;13.33;10.00;;;;;16.86;100.00;102061.13;5033316;28;45499;-75
2023/10/09 04:06:08;;;;;;;;;13.67;11.67;;;;;16.86;100.00;102071.78;5031826;28;48137;-74
2023/10/09 04:08:33;;;;;;;;;10.67;9.00;;;;;16.89;100.00;102068.28;5032335;28;47442;-74
2023/10/09 04:11:03;;;;;;;;;16.33;10.67;;;;;16.90;100.00;102070.94;5029473;28;45542;-74
2023/10/09 04:13:35;;;;;;;;;14.00;11.00;;;;;16.90;100.00;102070.03;5027074;28;45436;-74
2023/10/09 04:16:10;;;;;;;;;9.67;9.00;;;;;16.88;100.00;102080.69;5032126;28;45478;-74
2023/10/09 04:18:38;;;;;;;;;11.67;8.67;;;;;16.87;100.00;102070.00;5025034;28;47597;-74
2023/10/09 04:21:28;;;;;;;;;10.67;9.00;;;;;16.85;100.00;102070.03;5033161;28;45506;-74
2023/10/09 04:24:08;;;;;;;;;12.00;10.67;;;;;16.89;100.00;102070.94;5035230;28;45422;-74
2023/10/09 04:26:34;;;;;;;;;14.00;10.00;;;;;16.85;100.00;102056.69;5036008;28;45526;-74
2023/10/09 04:29:02;;;;;;;;;15.00;9.00;;;;;16.82;100.00;102063.75;5037334;28;47021;-75
2023/10/09 04:31:31;;;;;;;;;17.67;11.67;;;;;16.79;100.00;102058.44;5036158;28;45536;-74
2023/10/09 04:34:22;;;;;;;;;11.33;9.33;;;;;16.76;100.00;102059.28;5038143;28;46628;-74
2023/10/09 04:36:46;;;;;;;;;10.67;9.33;;;;;16.73;100.00;102054.84;5029848;28;45677;-75
2023/10/09 04:44:19;;;;;;;;;14.33;11.00;;;;;16.62;100.00;102059.19;5032674;28;45500;-76
2023/10/09 05:03:06;;;;;;;;;13.00;11.00;;;;;16.40;100.00;102075.91;5034515;28;45539;-75
2023/10/09 05:08:28;;;;;;;;;16.00;11.67;;;;;16.38;100.00;102078.59;5037279;28;45337;-77
2023/10/09 05:16:22;;;;;;;;;17.33;14.00;;;;;16.36;100.00;102087.47;5036420;28;45628;-75
2023/10/09 05:19:06;;;;;;;;;15.67;13.67;;;;;16.32;100.00;102091.88;5029969;28;45442;-74
2023/10/09 05:21:44;;;;;;;;;15.67;12.67;;;;;16.31;100.00;102078.53;5029846;28;45826;-75
2023/10/09 05:32:15;;;;;;;;;16.33;10.67;;;;;16.26;100.00;102086.50;5034168;28;45504;-74
2023/10/09 05:37:32;;;;;;;;;16.00;11.67;;;;;16.26;100.00;102099.81;5031267;28;46915;-75
2023/10/09 05:42:42;;;;;;;;;15.00;11.33;;;;;16.20;100.00;102098.00;5028836;28;46114;-74
2023/10/09 05:47:53;;;;;;;;;12.00;10.00;;;;;16.18;100.00;102110.41;5036283;28;45479;-73
2023/10/09 06:03:23;;;;;;;;;13.00;11.00;;;;;16.05;100.00;102094.31;5033261;28;45426;-73
2023/10/09 06:08:47;;;;;;;;;9.00;9.00;;;;;16.03;100.00;102091.63;5033329;28;45448;-74
2023/10/09 06:14:12;;;;;;;;;12.67;11.00;;;;;16.02;100.00;102105.81;5034083;28;46399;-74
2023/10/09 06:16:41;;;;;;;;;11.00;9.00;;;;;16.04;100.00;102111.19;5031929;28;45740;-74
2023/10/09 06:19:12;;;;;;;;;14.33;14.00;;;;;16.01;100.00;102104.06;5028688;28;45510;-75
2023/10/09 06:24:23;;;;;;;;;14.33;11.33;;;;;15.90;100.00;102108.38;5029868;28;46333;-74
2023/10/09 06:27:56;;;;;;;;;18.67;12.33;;;;;15.86;100.00;102111.91;5028296;28;45488;-74
2023/10/09 06:34:52;;;;;;;;;17.67;14.00;;;;;15.75;100.00;102114.44;5024853;28;46439;-76
2023/10/09 06:42:31;;;;;;;;;13.00;12.00;;;;;15.78;100.00;102127.81;5027937;28;45675;-75
2023/10/09 06:45:18;;;;;;;;;18.67;14.67;;;;;15.82;100.00;102126.06;5034046;28;46586;-75
2023/10/09 06:47:56;;;;;;;;;16.33;10.67;;;;;15.86;100.00;102135.88;5030066;28;46002;-75
2023/10/09 06:55:49;;;;;;;;;16.33;15.00;;;;;15.90;100.00;102119.94;5033812;28;45668;-76
2023/10/09 06:58:28;;;;;;;;;15.67;14.00;;;;;15.91;100.00;102116.38;5027109;28;45934;-75
2023/10/09 07:03:51;;;;;;;;;17.00;11.00;;;;;15.95;100.00;102125.31;5033743;28;45637;-76
2023/10/09 07:06:24;;;;;;;;;9.67;9.00;;;;;15.95;100.00;102119.97;5031359;28;46813;-79
2023/10/09 07:17:15;;;;;;;;;22.67;14.67;;;;;16.20;100.00;102134.44;5038594;28;47660;-78
2023/10/09 07:22:23;;;;;;;;;15.67;12.33;;;;;16.32;100.00;102137.19;5025821;28;45585;-76
2023/10/09 07:25:14;;;;;;;;;18.33;16.00;;;;;16.35;100.00;102129.22;5032902;28;45682;-76
2023/10/09 07:27:48;;;;;;;;;19.67;16.00;;;;;16.43;100.00;102139.94;5048747;28;46881;-78
2023/10/09 07:38:11;;;;;;;;;14.67;14.67;;;;;16.56;100.00;102149.81;5027128;28;45572;-78
2023/10/09 07:43:45;;;;;;;;;16.33;14.67;;;;;16.66;100.00;102156.09;5023181;28;45892;-79
2023/10/09 07:46:52;;;;;;;;;16.33;16.00;;;;;16.68;100.00;102168.59;5030130;28;45595;-81
2023/10/09 07:49:24;;;;;;;;;18.67;17.33;;;;;16.73;100.00;102169.53;5034793;28;46776;-79
2023/10/09 07:51:52;;;;;;;;;20.00;15.33;;;;;16.80;100.00;102162.47;5013484;28;45557;-80
2023/10/09 07:54:32;;;;;;;;;20.00;19.00;;;;;16.89;100.00;102173.22;5028367;28;45460;-80
2023/10/09 07:57:25;;;;;;;;;22.67;19.33;;;;;16.95;100.00;102157.22;5019262;28;45497;-82
2023/10/09 08:00:11;;;;;;;;;17.67;14.67;;;;;17.01;100.00;102162.59;5032105;28;46847;-80
2023/10/09 08:02:38;;;;;;;;;20.67;12.00;;;;;17.09;100.00;102159.06;5030762;28;46068;-81
2023/10/09 08:05:18;;;;;;;;;21.00;17.33;;;;;17.14;100.00;102162.66;5029151;28;45666;-80
2023/10/09 08:07:57;;;;;;;;;28.25;26.25;;;;;17.18;100.00;102157.34;5046963;28;45514;-81
2023/10/09 08:17:53;;;;;;;;;22.00;19.00;;;;;17.44;100.00;102161.91;5033094;28;45559;-79
2023/10/09 08:20:26;;;;;;;;;20.33;20.00;;;;;17.48;100.00;102166.38;5033031;28;47697;-80
2023/10/09 08:22:55;;;;;;;;;24.00;19.00;;;;;17.55;100.00;102168.19;5029259;28;46679;-79
2023/10/09 08:25:26;;;;;;;;;26.00;19.33;;;;;17.60;100.00;102168.22;5026996;28;45590;-78
2023/10/09 08:28:39;;;;;;;;;19.67;17.67;;;;;17.66;100.00;102163.78;5035807;28;45565;-79
2023/10/09 08:30:50;;;;;;;;;19.00;18.33;;;;;17.72;100.00;102166.47;5030450;28;46547;-77
2023/10/09 08:35:55;;;;;;;;;21.00;18.00;;;;;17.93;100.00;102162.09;5035423;28;45519;-78
2023/10/09 08:38:23;;;;;;;;;20.67;16.67;;;;;17.98;100.00;102162.97;5044284;22;45406;-78
2023/10/09 08:40:50;;;;;;;;;17.67;15.33;;;;;18.01;100.00;102163.91;5037476;28;45772;-77
2023/10/09 08:43:19;;;;;;;;;15.00;14.00;;;;;18.11;100.00;102164.81;5030902;28;45621;-77
2023/10/09 08:45:47;;;;;;;;;16.33;15.00;;;;;18.20;100.00;102164.78;5045900;28;46382;-79
2023/10/09 08:48:17;;;;;;;;;13.67;13.67;;;;;18.26;100.00;102159.44;5033536;28;45527;-78
2023/10/09 08:50:49;;;;;;;;;15.00;12.33;;;;;18.31;100.00;102165.69;5032870;28;46947;-79
2023/10/09 08:53:16;;;;;;;;;20.00;12.00;;;;;18.39;100.00;102151.44;5046208;28;45554;-79
2023/10/09 08:55:42;;;;;;;;;18.33;11.00;;;;;18.48;100.00;102156.75;5041102;22;45684;-81
2023/10/09 08:58:18;;;;;;;;;11.33;11.00;;;;;18.53;100.00;102163.00;5030953;22;45419;-80
2023/10/09 09:00:45;;;;;;;;;15.00;12.33;;;;;18.61;100.00;102157.66;5021507;28;46432;-79
2023/10/09 09:03:16;;;;;;;;;13.00;11.00;;;;;18.67;100.00;102147.84;5012049;28;45500;-77
2023/10/09 09:06:02;;;;;;;;;17.33;14.33;;;;;18.73;100.00;102149.66;5010684;28;45519;-76
2023/10/09 09:08:28;;;;;;;;;18.33;13.00;;;;;18.83;100.00;102148.75;5015417;28;45523;-79
2023/10/09 09:11:48;;;;;;;;;15.67;14.33;;;;;18.91;100.00;102136.25;5013882;28;45742;-79
2023/10/09 09:14:03;;;;;;;;;17.33;12.67;;;;;18.99;100.00;102149.59;5018611;28;45541;-79
2023/10/09 09:16:32;;;;;;;;;16.00;12.00;;;;;19.06;100.00;102138.84;5008331;28;45333;-78
2023/10/09 09:21:40;;;;;;;;;15.67;12.00;;;;;19.23;100.00;102133.47;5010826;28;45816;-79
2023/10/09 09:24:16;;;;;;;;;17.67;12.00;;;;;19.27;100.00;102135.22;4995767;28;46327;-80
2023/10/09 09:26:45;;;;;;;;;15.00;15.00;;;;;19.36;100.00;102145.88;5012837;23;45547;-79
2023/10/09 09:29:12;;;;;;;;;17.33;11.33;;;;;19.47;100.00;102139.59;5039922;22;45503;-83
2023/10/09 09:36:34;;;;;;;;;19.67;14.67;;;;;19.77;100.00;102125.19;5040824;22;45561;-83
2023/10/09 09:39:01;;;;;;;;;14.00;14.00;;;;;19.85;100.00;102123.31;5012417;28;45912;-80
2023/10/09 09:41:27;;;;;;;;;15.67;12.67;;;;;19.98;100.00;102124.16;5012194;28;46397;-78
2023/10/09 09:44:04;;;;;;;;;15.33;14.67;;;;;20.06;100.00;102123.16;5012919;28;45655;-79
2023/10/09 09:46:34;;;;;;;;;20.33;15.33;;;;;20.18;100.00;102121.28;5010547;28;45451;-79
2023/10/09 09:49:16;;;;;;;;;19.67;14.67;;;;;20.30;100.00;102126.56;5014148;28;45658;-80
2023/10/09 09:51:46;;;;;;;;;16.00;13.00;;;;;20.42;100.00;102121.97;5013057;28;45912;-78
2023/10/09 09:54:15;;;;;;;;;14.33;14.33;;;;;20.55;100.00;102119.19;5014861;28;45460;-78
2023/10/09 09:56:44;;;;;;;;;10.67;10.67;;;;;20.65;100.00;102113.72;5007417;28;45537;-79
2023/10/09 09:59:13;;;;;;;;;15.00;12.67;;;;;20.77;100.00;102115.38;4987705;28;45532;-80
2023/10/09 10:01:44;;;;;;;;;15.33;14.67;;;;;20.89;100.00;102107.22;5026163;28;45873;-79
2023/10/09 10:04:20;;;;;;;;;18.00;12.33;;;;;20.96;100.00;102105.34;5007154;28;45673;-80
2023/10/09 10:06:47;;;;;;;;;16.00;12.00;;;;;21.03;100.00;102108.84;5011667;28;45485;-77
2023/10/09 10:09:41;;;;;;;;;14.67;10.33;;;;;21.11;100.00;102112.34;4998364;28;45550;-77
2023/10/09 10:12:11;;;;;;;;;11.33;7.67;;;;;21.20;100.00;102104.16;5013815;28;45894;-79
2023/10/09 10:15:08;;;;;;;;;15.33;12.33;;;;;21.32;100.00;102109.41;5012150;28;45546;-79
2023/10/09 10:17:59;;;;;;;;;14.67;12.33;;;;;21.48;100.00;102098.44;5009092;28;45487;-78
2023/10/09 10:22:50;;;;;;;;;13.67;10.67;;;;;21.63;100.00;102100.94;5054061;28;45471;-81
2023/10/09 10:25:41;;;;;;;;;11.00;11.00;;;;;21.71;100.00;102090.94;5052369;28;45425;-83
2023/10/09 10:28:35;;;;;;;;;13.33;7.33;;;;;21.83;100.00;102088.03;5052658;28;45329;-81
2023/10/09 10:31:03;;;;;;;;;8.00;8.00;;;;;21.94;100.00;102091.47;5052486;28;45617;-77
2023/10/09 10:33:53;;;;;;;;;15.00;8.00;;;;;22.04;100.00;102096.69;5051580;28;47356;-77
2023/10/09 10:36:22;;;;;;;;;9.33;9.33;;;;;22.09;100.00;102086.75;5042009;28;46941;-78
2023/10/09 10:42:00;;;;;;;;;12.33;7.00;;;;;22.33;100.00;102082.78;5035864;28;45489;-73
2023/10/09 10:44:42;;;;;;;;;8.00;6.00;;;;;22.39;100.00;102075.47;5050720;28;46292;-75
2023/10/09 10:47:24;;;;;;;;;7.00;5.67;;;;;22.40;100.00;102063.78;5050818;28;46035;-73
2023/10/09 10:49:51;;;;;;;;;5.00;5.00;;;;;22.48;100.00;102050.22;5049398;28;45607;-73
2023/10/09 10:52:21;;;;;;;;;7.67;6.00;;;;;22.53;100.00;102050.09;5051446;28;45411;-73
2023/10/09 10:54:47;;;;;;;;;10.00;7.00;;;;;22.55;100.00;102054.56;5050475;28;46239;-75
2023/10/09 10:57:19;;;;;;;;;4.67;4.67;;;;;22.56;100.00;102053.63;5052275;28;45437;-76
2023/10/09 10:59:45;;;;;;;;;7.00;5.00;;;;;22.59;100.00;102041.94;5050042;28;45753;-75
2023/10/09 11:04:44;;;;;;;;;8.67;6.33;;;;;22.58;100.00;102054.47;5053632;28;47290;-73
2023/10/09 11:07:12;;;;;;;;;7.67;5.00;;;;;22.58;100.00;102048.19;5051015;28;45540;-74
2023/10/09 11:12:21;;;;;;;;;7.00;6.00;;;;;22.75;100.00;102049.66;5060952;22;63389;-76
2023/10/09 11:15:05;;;;;;;;;7.33;5.67;;;;;22.88;100.00;102047.63;5053839;28;46003;-76
2023/10/09 11:17:32;;;;;;;;;5.00;4.67;;;;;22.98;100.00;102054.59;5054083;28;45497;-77
2023/10/09 11:20:04;;;;;;;;;6.00;6.00;;;;;23.11;100.00;102054.31;5050783;28;46331;-76
2023/10/09 11:22:36;;;;;;;;;8.00;6.00;;;;;23.24;100.00;102047.78;5049342;28;46322;-74
2023/10/09 11:25:11;;;;;;;;;7.67;6.00;;;;;23.36;100.00;102050.19;5064186;27;46477;-77
2023/10/09 11:27:39;;;;;;;;;9.00;6.00;;;;;23.47;100.00;102055.31;5052519;28;45540;-77
2023/10/09 11:30:21;;;;;;;;;6.00;6.00;;;;;23.59;100.00;102044.25;5051125;28;45610;-78
2023/10/09 11:32:49;;;;;;;;;5.00;5.00;;;;;23.79;100.00;102049.19;5053154;28;45628;-77
2023/10/09 11:35:27;;;;;;;;;8.67;6.33;;;;;23.97;100.00;102028.94;5049970;28;46047;-78
2023/10/09 11:37:56;;;;;;;;;5.33;5.33;;;;;24.21;100.00;102027.44;5033221;28;45515;-79
2023/10/09 11:40:32;;;;;;;;;5.00;5.00;;;;;24.40;100.00;102031.47;5049902;28;45535;-80
2023/10/09 11:43:00;;;;;;;;;8.00;5.00;;;;;24.56;100.00;102029.22;5042624;28;45986;-80
2023/10/09 11:45:29;;;;;;;;;8.00;4.67;;;;;24.69;100.00;102027.03;5052783;28;47754;-81
2023/10/09 11:47:58;;;;;;;;;8.00;5.00;;;;;24.76;100.00;102021.41;5048320;28;45538;-80
2023/10/09 11:51:18;;;;;;;;;8.00;6.00;;;;;24.81;100.00;102018.56;5056161;28;45588;-82
2023/10/09 11:53:49;;;;;;;;;6.00;5.33;;;;;24.82;100.00;102015.84;5052576;28;46021;-80
2023/10/09 11:56:19;;;;;;;;;6.00;6.00;;;;;24.84;100.00;102026.59;5030800;28;47641;-80
2023/10/09 11:58:49;;;;;;;;;8.00;5.00;;;;;24.82;100.00;102021.25;5048644;28;45539;-79
2023/10/09 12:01:20;;;;;;;;;5.33;5.00;;;;;24.81;100.00;102018.56;5057958;28;45449;-80
2023/10/09 12:03:53;;;;;;;;;8.33;5.00;;;;;24.77;100.00;102015.09;5051988;28;45708;-80
2023/10/09 12:06:22;;;;;;;;;5.00;5.00;;;;;24.75;100.00;102019.63;5051915;28;46835;-81
2023/10/09 12:08:48;;;;;;;;;7.00;5.00;;;;;24.72;100.00;102013.47;5051974;28;45530;-80
2023/10/09 12:11:22;;;;;;;;;6.00;6.00;;;;;24.69;100.00;102008.13;5041109;28;45484;-77
2023/10/09 12:13:48;;;;;;;;;6.67;6.00;;;;;24.67;100.00;102001.91;5050852;28;45442;-80
2023/10/09 12:16:15;;;;;;;;;5.67;4.00;;;;;24.64;100.00;102000.16;5047482;28;45630;-79
2023/10/09 12:18:40;;;;;;;;;7.00;5.67;;;;;24.62;100.00;101998.44;5030192;28;46070;-78
2023/10/09 12:21:06;;;;;;;;;5.00;5.00;;;;;24.55;100.00;101997.72;5068108;27;45628;-81
2023/10/09 12:23:35;;;;;;;;;7.33;4.00;;;;;24.50;100.00;101992.47;5051689;28;45516;-81
2023/10/09 12:26:04;;;;;;;;;5.33;4.00;;;;;24.49;100.00;101995.19;5029023;28;47559;-81
2023/10/09 12:28:32;;;;;;;;;7.67;5.00;;;;;24.45;100.00;101986.31;5044896;28;46166;-79
2023/10/09 12:31:01;;;;;;;;;4.33;4.00;;;;;24.49;100.00;101979.88;5052066;28;45445;-79
2023/10/09 12:33:28;;;;;;;;;6.33;5.00;;;;;24.51;100.00;101978.03;5040694;28;45412;-80
2023/10/09 12:35:59;;;;;;;;;4.33;4.33;;;;;24.52;100.00;101971.69;5049792;28;46787;-78
2023/10/09 12:38:33;;;;;;;;;6.67;5.67;;;;;24.52;100.00;101969.00;5054112;27;46344;-76
2023/10/09 12:41:26;;;;;;;;;6.67;6.67;;;;;24.53;100.00;101948.28;5067067;27;45578;-75
2023/10/09 12:43:52;;;;;;;;;6.00;6.00;;;;;24.57;100.00;101952.66;5055975;28;45976;-75
2023/10/09 12:46:23;;;;;;;;;6.00;6.00;;;;;24.68;100.00;101955.94;5052590;28;46611;-75
2023/10/09 12:48:54;;;;;;;;;6.67;5.00;;;;;24.76;100.00;101951.16;5054961;27;45611;-74
2023/10/09 12:51:20;;;;;;;;;5.67;5.00;;;;;24.86;100.00;101949.06;5054506;28;45594;-74
2023/10/09 12:53:48;;;;;;;;;4.67;3.00;;;;;24.91;100.00;101947.13;5055985;28;45539;-73
2023/10/09 12:56:15;;;;;;;;;8.33;5.33;;;;;25.04;100.00;101956.63;5052197;28;46802;-78
2023/10/09 12:58:52;;;;;;;;;6.33;4.33;;;;;25.17;100.00;101950.84;5046747;28;45761;-79
2023/10/09 13:01:19;;;;;;;;;5.00;5.00;;;;;25.32;100.00;101953.94;5057565;27;45580;-80
2023/10/09 13:03:44;;;;;;;;;7.00;4.00;;;;;25.46;100.00;101945.41;5055031;28;45763;-79
2023/10/09 13:06:13;;;;;;;;;5.33;4.00;;;;;25.58;100.00;101941.38;5059268;28;45437;-78
2023/10/09 13:08:42;;;;;;;;;9.67;5.33;;;;;25.73;100.00;101940.00;5052200;28;45534;-79
2023/10/09 13:11:11;;;;;;;;;8.00;7.00;;;;;25.78;100.00;101936.22;5048564;28;45714;-78
2023/10/09 13:13:41;;;;;;;;;5.33;4.33;;;;;25.84;100.00;101936.00;5053539;27;45735;-80
2023/10/09 13:16:23;;;;;;;;;4.67;3.67;;;;;25.85;100.00;101936.88;5040393;28;46773;-78
2023/10/09 13:18:56;;;;;;;;;5.33;5.00;;;;;25.89;100.00;101933.13;5052263;28;45492;-77
2023/10/09 13:21:24;;;;;;;;;8.67;6.00;;;;;25.93;100.00;101932.06;5050505;28;46394;-79
2023/10/09 13:23:50;;;;;;;;;6.00;6.00;;;;;25.96;100.00;101925.66;5038791;28;45698;-79
2023/10/09 13:26:24;;;;;;;;;9.00;5.33;;;;;26.02;100.00;101926.31;5052131;28;47545;-79
2023/10/09 13:28:51;;;;;;;;;7.00;6.00;;;;;26.06;100.00;101921.69;5052148;28;45654;-78
2023/10/09 14:28:29;;;;;;;;;8.67;6.33;;;;;26.23;100.00;101884.06;5035794;28;73008;-79
2023/10/09 14:30:59;;;;;;;;;6.67;6.33;;;;;26.18;100.00;101893.28;5031700;28;50621;-79
2023/10/09 14:33:27;;;;;;;;;6.67;5.67;;;;;26.11;100.00;101892.63;5031883;28;45565;-80
2023/10/09 14:35:54;;;;;;;;;6.33;5.00;;;;;26.06;100.00;101886.50;5035313;28;46867;-76
2023/10/09 14:38:26;;;;;;;;;5.67;5.00;;;;;26.01;100.00;101888.50;5033726;28;45577;-75
2023/10/09 14:40:57;;;;;;;;;15.67;15.67;;;;;25.93;100.00;101885.16;5038670;28;45581;-77
2023/10/09 14:43:27;;;;;;;;;7.00;6.00;;;;;25.86;100.00;101880.00;5041030;28;45767;-75
2023/10/09 14:45:53;;;;;;;;;12.67;12.67;;;;;25.81;100.00;101883.81;5044291;28;47455;-76
2023/10/09 14:48:19;;;;;;;;;14.67;13.00;;;;;25.70;100.00;101891.38;5040614;28;45521;-75
2023/10/09 14:50:49;;;;;;;;;8.33;8.00;;;;;25.61;100.00;101896.16;5035203;28;45554;-75
2023/10/09 14:53:15;;;;;;;;;3.33;3.33;;;;;25.58;100.00;101899.00;5032730;28;45654;-75
2023/10/09 14:55:45;;;;;;;;;8.00;7.00;;;;;25.53;100.00;101895.56;5037429;28;47425;-76
2023/10/09 14:58:11;;;;;;;;;7.67;6.00;;;;;25.54;100.00;101899.16;5035745;28;45484;-75